sensor_id;sensor_type;location;lat;lon;timestamp;P1;durP1;ratioP1;P2;durP2;ratioP2
14139;SDS011;7150;53.514;9.988;2023-06-19T00:00:01;4.43;;;3.70;;
14139;SDS011;7150;53.514;9.988;2023-06-19T00:02:32;3.53;;;3.23;;
14139;SDS011;7150;53.514;9.988;2023-06-19T00:04:57;3.63;;;3.33;;
14139;SDS011;7150;53.514;9.988;2023-06-19T00:07:23;3.47;;;3.13;;
14139;SDS011;7150;53.514;9.988;2023-06-19T00:09:48;4.30;;;3.67;;
14139;SDS011;7150;53.514;9.988;2023-06-19T00:12:14;3.80;;;3.50;;
14139;SDS011;7150;53.514;9.988;2023-06-19T00:14:39;4.73;;;3.80;;
14139;SDS011;7150;53.514;9.988;2023-06-19T00:17:05;4.27;;;3.60;;
14139;SDS011;7150;53.514;9.988;2023-06-19T00:19:32;4.27;;;3.60;;
14139;SDS011;7150;53.514;9.988;2023-06-19T00:22:01;4.47;;;3.97;;
14139;SDS011;7150;53.514;9.988;2023-06-19T00:24:27;4.70;;;3.57;;
14139;SDS011;7150;53.514;9.988;2023-06-19T00:26:53;3.50;;;3.20;;
14139;SDS011;7150;53.514;9.988;2023-06-19T00:29:19;3.73;;;3.43;;
14139;SDS011;7150;53.514;9.988;2023-06-19T00:31:44;3.90;;;3.30;;
14139;SDS011;7150;53.514;9.988;2023-06-19T00:34:10;4.07;;;3.67;;
14139;SDS011;7150;53.514;9.988;2023-06-19T00:36:35;4.40;;;3.60;;
14139;SDS011;7150;53.514;9.988;2023-06-19T00:39:05;4.87;;;3.60;;
14139;SDS011;7150;53.514;9.988;2023-06-19T00:41:32;4.87;;;3.60;;
14139;SDS011;7150;53.514;9.988;2023-06-19T00:44:00;3.90;;;3.33;;
14139;SDS011;7150;53.514;9.988;2023-06-19T00:46:25;4.17;;;3.77;;
14139;SDS011;7150;53.514;9.988;2023-06-19T00:48:51;4.77;;;3.93;;
14139;SDS011;7150;53.514;9.988;2023-06-19T00:51:17;4.87;;;3.50;;
14139;SDS011;7150;53.514;9.988;2023-06-19T00:53:42;3.77;;;3.40;;
14139;SDS011;7150;53.514;9.988;2023-06-19T00:56:08;5.43;;;3.63;;
14139;SDS011;7150;53.514;9.988;2023-06-19T00:58:33;4.47;;;4.03;;
14139;SDS011;7150;53.514;9.988;2023-06-19T01:01:00;4.10;;;3.70;;
14139;SDS011;7150;53.514;9.988;2023-06-19T01:03:26;4.20;;;3.70;;
14139;SDS011;7150;53.514;9.988;2023-06-19T01:05:51;5.33;;;3.60;;
14139;SDS011;7150;53.514;9.988;2023-06-19T01:08:29;3.90;;;3.50;;
14139;SDS011;7150;53.514;9.988;2023-06-19T01:10:59;4.30;;;3.50;;
14139;SDS011;7150;53.514;9.988;2023-06-19T01:13:30;4.17;;;3.40;;
14139;SDS011;7150;53.514;9.988;2023-06-19T01:16:02;4.90;;;4.03;;
14139;SDS011;7150;53.514;9.988;2023-06-19T01:18:29;4.10;;;3.53;;
14139;SDS011;7150;53.514;9.988;2023-06-19T01:20:56;4.53;;;4.07;;
14139;SDS011;7150;53.514;9.988;2023-06-19T01:23:33;4.03;;;3.50;;
14139;SDS011;7150;53.514;9.988;2023-06-19T01:25:58;4.33;;;3.70;;
14139;SDS011;7150;53.514;9.988;2023-06-19T01:28:24;4.37;;;3.70;;
14139;SDS011;7150;53.514;9.988;2023-06-19T01:30:51;4.27;;;3.87;;
14139;SDS011;7150;53.514;9.988;2023-06-19T01:33:26;5.20;;;3.90;;
14139;SDS011;7150;53.514;9.988;2023-06-19T01:35:53;4.10;;;3.70;;
14139;SDS011;7150;53.514;9.988;2023-06-19T01:38:22;4.50;;;4.10;;
14139;SDS011;7150;53.514;9.988;2023-06-19T01:40:52;4.43;;;4.00;;
14139;SDS011;7150;53.514;9.988;2023-06-19T01:43:19;5.07;;;3.80;;
14139;SDS011;7150;53.514;9.988;2023-06-19T01:45:46;4.30;;;3.90;;
14139;SDS011;7150;53.514;9.988;2023-06-19T01:48:12;5.07;;;3.90;;
14139;SDS011;7150;53.514;9.988;2023-06-19T01:50:38;4.27;;;3.87;;
14139;SDS011;7150;53.514;9.988;2023-06-19T01:53:05;5.70;;;3.70;;
14139;SDS011;7150;53.514;9.988;2023-06-19T01:55:31;5.17;;;4.07;;
14139;SDS011;7150;53.514;9.988;2023-06-19T01:57:57;5.27;;;4.27;;
14139;SDS011;7150;53.514;9.988;2023-06-19T02:00:22;4.17;;;3.73;;
14139;SDS011;7150;53.514;9.988;2023-06-19T02:02:48;4.83;;;4.27;;
14139;SDS011;7150;53.514;9.988;2023-06-19T02:05:14;7.60;;;4.20;;
14139;SDS011;7150;53.514;9.988;2023-06-19T02:07:40;4.37;;;3.83;;
14139;SDS011;7150;53.514;9.988;2023-06-19T02:10:06;4.80;;;3.90;;
14139;SDS011;7150;53.514;9.988;2023-06-19T02:12:33;4.90;;;4.40;;
14139;SDS011;7150;53.514;9.988;2023-06-19T02:14:58;4.47;;;4.07;;
14139;SDS011;7150;53.514;9.988;2023-06-19T02:17:23;4.70;;;4.10;;
14139;SDS011;7150;53.514;9.988;2023-06-19T02:19:49;4.53;;;3.97;;
14139;SDS011;7150;53.514;9.988;2023-06-19T02:22:14;4.37;;;3.97;;
14139;SDS011;7150;53.514;9.988;2023-06-19T02:24:40;4.60;;;4.20;;
14139;SDS011;7150;53.514;9.988;2023-06-19T02:27:06;4.70;;;4.20;;
14139;SDS011;7150;53.514;9.988;2023-06-19T02:29:31;5.47;;;3.83;;
14139;SDS011;7150;53.514;9.988;2023-06-19T02:31:58;4.37;;;3.97;;
14139;SDS011;7150;53.514;9.988;2023-06-19T02:34:24;4.53;;;4.07;;
14139;SDS011;7150;53.514;9.988;2023-06-19T02:36:50;4.93;;;4.20;;
14139;SDS011;7150;53.514;9.988;2023-06-19T02:39:15;3.93;;;3.53;;
14139;SDS011;7150;53.514;9.988;2023-06-19T02:41:41;4.17;;;3.77;;
14139;SDS011;7150;53.514;9.988;2023-06-19T02:44:12;4.57;;;4.10;;
14139;SDS011;7150;53.514;9.988;2023-06-19T02:46:37;4.33;;;3.70;;
14139;SDS011;7150;53.514;9.988;2023-06-19T02:49:03;4.30;;;3.90;;
14139;SDS011;7150;53.514;9.988;2023-06-19T02:51:29;4.30;;;3.90;;
14139;SDS011;7150;53.514;9.988;2023-06-19T02:53:54;5.17;;;3.90;;
14139;SDS011;7150;53.514;9.988;2023-06-19T02:56:20;6.00;;;4.30;;
14139;SDS011;7150;53.514;9.988;2023-06-19T02:58:45;4.53;;;3.97;;
14139;SDS011;7150;53.514;9.988;2023-06-19T03:01:10;4.57;;;4.00;;
14139;SDS011;7150;53.514;9.988;2023-06-19T03:03:36;4.67;;;4.20;;
14139;SDS011;7150;53.514;9.988;2023-06-19T03:06:05;5.60;;;4.60;;
14139;SDS011;7150;53.514;9.988;2023-06-19T03:08:35;5.43;;;4.37;;
14139;SDS011;7150;53.514;9.988;2023-06-19T03:11:01;4.70;;;4.30;;
14139;SDS011;7150;53.514;9.988;2023-06-19T03:13:29;4.67;;;4.00;;
14139;SDS011;7150;53.514;9.988;2023-06-19T03:15:56;4.93;;;4.30;;
14139;SDS011;7150;53.514;9.988;2023-06-19T03:18:22;4.60;;;4.07;;
14139;SDS011;7150;53.514;9.988;2023-06-19T03:20:47;4.93;;;4.30;;
14139;SDS011;7150;53.514;9.988;2023-06-19T03:23:13;5.40;;;4.70;;
14139;SDS011;7150;53.514;9.988;2023-06-19T03:25:38;5.00;;;4.40;;
14139;SDS011;7150;53.514;9.988;2023-06-19T03:28:07;4.73;;;4.23;;
14139;SDS011;7150;53.514;9.988;2023-06-19T03:30:33;4.93;;;4.30;;
14139;SDS011;7150;53.514;9.988;2023-06-19T03:32:58;5.03;;;4.50;;
14139;SDS011;7150;53.514;9.988;2023-06-19T03:35:24;4.97;;;4.47;;
14139;SDS011;7150;53.514;9.988;2023-06-19T03:37:49;4.63;;;4.20;;
14139;SDS011;7150;53.514;9.988;2023-06-19T03:40:15;6.27;;;5.10;;
14139;SDS011;7150;53.514;9.988;2023-06-19T03:42:40;4.50;;;4.07;;
14139;SDS011;7150;53.514;9.988;2023-06-19T03:45:06;5.63;;;5.03;;
14139;SDS011;7150;53.514;9.988;2023-06-19T03:47:32;5.30;;;4.80;;
14139;SDS011;7150;53.514;9.988;2023-06-19T03:49:57;4.40;;;4.00;;
14139;SDS011;7150;53.514;9.988;2023-06-19T03:52:23;5.33;;;4.83;;
14139;SDS011;7150;53.514;9.988;2023-06-19T03:54:48;5.07;;;4.57;;
14139;SDS011;7150;53.514;9.988;2023-06-19T03:57:14;4.97;;;4.47;;
14139;SDS011;7150;53.514;9.988;2023-06-19T03:59:40;5.10;;;4.50;;
14139;SDS011;7150;53.514;9.988;2023-06-19T04:02:05;5.07;;;4.57;;
14139;SDS011;7150;53.514;9.988;2023-06-19T04:04:31;5.27;;;4.37;;
14139;SDS011;7150;53.514;9.988;2023-06-19T04:06:56;4.87;;;4.30;;
14139;SDS011;7150;53.514;9.988;2023-06-19T04:09:24;4.80;;;4.30;;
14139;SDS011;7150;53.514;9.988;2023-06-19T04:11:49;4.77;;;4.37;;
14139;SDS011;7150;53.514;9.988;2023-06-19T04:14:15;5.00;;;4.50;;
14139;SDS011;7150;53.514;9.988;2023-06-19T04:16:40;5.23;;;4.60;;
14139;SDS011;7150;53.514;9.988;2023-06-19T04:19:06;5.07;;;4.57;;
14139;SDS011;7150;53.514;9.988;2023-06-19T04:21:31;5.40;;;4.60;;
14139;SDS011;7150;53.514;9.988;2023-06-19T04:23:57;5.47;;;4.97;;
14139;SDS011;7150;53.514;9.988;2023-06-19T04:26:22;5.63;;;4.53;;
14139;SDS011;7150;53.514;9.988;2023-06-19T04:28:49;5.40;;;4.83;;
14139;SDS011;7150;53.514;9.988;2023-06-19T04:31:15;5.23;;;4.73;;
14139;SDS011;7150;53.514;9.988;2023-06-19T04:33:42;5.33;;;4.70;;
14139;SDS011;7150;53.514;9.988;2023-06-19T04:36:08;5.63;;;5.03;;
14139;SDS011;7150;53.514;9.988;2023-06-19T04:38:34;5.27;;;4.67;;
14139;SDS011;7150;53.514;9.988;2023-06-19T04:41:00;6.60;;;4.93;;
14139;SDS011;7150;53.514;9.988;2023-06-19T04:43:25;5.33;;;4.83;;
14139;SDS011;7150;53.514;9.988;2023-06-19T04:45:51;6.80;;;6.10;;
14139;SDS011;7150;53.514;9.988;2023-06-19T04:48:16;5.47;;;4.90;;
14139;SDS011;7150;53.514;9.988;2023-06-19T04:50:42;6.60;;;4.93;;
14139;SDS011;7150;53.514;9.988;2023-06-19T04:53:08;5.77;;;5.20;;
14139;SDS011;7150;53.514;9.988;2023-06-19T04:55:33;5.53;;;4.97;;
14139;SDS011;7150;53.514;9.988;2023-06-19T04:57:59;6.97;;;5.83;;
14139;SDS011;7150;53.514;9.988;2023-06-19T05:00:24;5.80;;;5.20;;
14139;SDS011;7150;53.514;9.988;2023-06-19T05:02:50;5.60;;;5.10;;
14139;SDS011;7150;53.514;9.988;2023-06-19T05:05:16;7.93;;;5.00;;
14139;SDS011;7150;53.514;9.988;2023-06-19T05:07:41;5.80;;;5.10;;
14139;SDS011;7150;53.514;9.988;2023-06-19T05:10:07;6.37;;;5.13;;
14139;SDS011;7150;53.514;9.988;2023-06-19T05:12:34;5.63;;;5.00;;
14139;SDS011;7150;53.514;9.988;2023-06-19T05:15:00;7.17;;;5.50;;
14139;SDS011;7150;53.514;9.988;2023-06-19T05:17:26;4.97;;;4.47;;
14139;SDS011;7150;53.514;9.988;2023-06-19T05:19:51;5.47;;;4.97;;
14139;SDS011;7150;53.514;9.988;2023-06-19T05:22:17;5.80;;;4.73;;
14139;SDS011;7150;53.514;9.988;2023-06-19T05:24:43;5.80;;;5.20;;
14139;SDS011;7150;53.514;9.988;2023-06-19T05:27:09;6.47;;;5.50;;
14139;SDS011;7150;53.514;9.988;2023-06-19T05:29:34;6.23;;;5.33;;
14139;SDS011;7150;53.514;9.988;2023-06-19T05:32:00;6.03;;;5.13;;
14139;SDS011;7150;53.514;9.988;2023-06-19T05:34:26;5.83;;;5.23;;
14139;SDS011;7150;53.514;9.988;2023-06-19T05:36:51;5.70;;;5.10;;
14139;SDS011;7150;53.514;9.988;2023-06-19T05:39:16;5.77;;;5.23;;
14139;SDS011;7150;53.514;9.988;2023-06-19T05:41:43;6.80;;;6.10;;
14139;SDS011;7150;53.514;9.988;2023-06-19T05:44:10;6.10;;;5.50;;
14139;SDS011;7150;53.514;9.988;2023-06-19T05:46:40;5.30;;;4.80;;
14139;SDS011;7150;53.514;9.988;2023-06-19T05:49:05;5.83;;;5.07;;
14139;SDS011;7150;53.514;9.988;2023-06-19T05:51:31;6.03;;;5.37;;
14139;SDS011;7150;53.514;9.988;2023-06-19T05:53:56;6.20;;;4.97;;
14139;SDS011;7150;53.514;9.988;2023-06-19T05:56:27;5.57;;;5.07;;
14139;SDS011;7150;53.514;9.988;2023-06-19T05:58:53;6.77;;;5.17;;
14139;SDS011;7150;53.514;9.988;2023-06-19T06:01:19;5.93;;;5.30;;
14139;SDS011;7150;53.514;9.988;2023-06-19T06:03:44;6.73;;;5.90;;
14139;SDS011;7150;53.514;9.988;2023-06-19T06:06:10;6.20;;;5.60;;
14139;SDS011;7150;53.514;9.988;2023-06-19T06:08:35;6.20;;;5.53;;
14139;SDS011;7150;53.514;9.988;2023-06-19T06:11:01;6.80;;;6.10;;
14139;SDS011;7150;53.514;9.988;2023-06-19T06:13:27;6.40;;;5.70;;
14139;SDS011;7150;53.514;9.988;2023-06-19T06:15:52;6.27;;;5.53;;
14139;SDS011;7150;53.514;9.988;2023-06-19T06:18:18;6.60;;;5.73;;
14139;SDS011;7150;53.514;9.988;2023-06-19T06:20:44;6.53;;;5.83;;
14139;SDS011;7150;53.514;9.988;2023-06-19T06:23:10;6.63;;;5.93;;
14139;SDS011;7150;53.514;9.988;2023-06-19T06:25:35;6.23;;;5.57;;
14139;SDS011;7150;53.514;9.988;2023-06-19T06:28:00;6.50;;;5.90;;
14139;SDS011;7150;53.514;9.988;2023-06-19T06:30:26;7.03;;;6.33;;
14139;SDS011;7150;53.514;9.988;2023-06-19T06:32:53;6.57;;;5.80;;
14139;SDS011;7150;53.514;9.988;2023-06-19T06:35:18;6.97;;;6.27;;
14139;SDS011;7150;53.514;9.988;2023-06-19T06:37:44;7.17;;;6.47;;
14139;SDS011;7150;53.514;9.988;2023-06-19T06:40:11;6.83;;;6.13;;
14139;SDS011;7150;53.514;9.988;2023-06-19T06:42:36;13.07;;;7.00;;
14139;SDS011;7150;53.514;9.988;2023-06-19T06:45:06;24.67;;;9.33;;
14139;SDS011;7150;53.514;9.988;2023-06-19T06:47:32;16.03;;;8.23;;
14139;SDS011;7150;53.514;9.988;2023-06-19T06:49:59;17.93;;;8.20;;
14139;SDS011;7150;53.514;9.988;2023-06-19T06:52:25;8.77;;;7.33;;
14139;SDS011;7150;53.514;9.988;2023-06-19T06:54:50;10.40;;;7.27;;
14139;SDS011;7150;53.514;9.988;2023-06-19T06:57:16;9.17;;;5.60;;
14139;SDS011;7150;53.514;9.988;2023-06-19T06:59:41;7.43;;;6.17;;
14139;SDS011;7150;53.514;9.988;2023-06-19T07:02:07;7.80;;;6.07;;
14139;SDS011;7150;53.514;9.988;2023-06-19T07:04:32;7.07;;;6.10;;
14139;SDS011;7150;53.514;9.988;2023-06-19T07:06:58;7.27;;;6.57;;
14139;SDS011;7150;53.514;9.988;2023-06-19T07:09:24;7.67;;;6.40;;
14139;SDS011;7150;53.514;9.988;2023-06-19T07:11:49;8.67;;;6.70;;
14139;SDS011;7150;53.514;9.988;2023-06-19T07:14:15;9.83;;;7.03;;
14139;SDS011;7150;53.514;9.988;2023-06-19T07:16:43;7.30;;;6.30;;
14139;SDS011;7150;53.514;9.988;2023-06-19T07:19:09;7.47;;;6.67;;
14139;SDS011;7150;53.514;9.988;2023-06-19T07:21:35;7.13;;;6.10;;
14139;SDS011;7150;53.514;9.988;2023-06-19T07:24:00;6.73;;;5.97;;
14139;SDS011;7150;53.514;9.988;2023-06-19T07:26:26;7.07;;;6.47;;
14139;SDS011;7150;53.514;9.988;2023-06-19T07:28:52;7.70;;;6.90;;
14139;SDS011;7150;53.514;9.988;2023-06-19T07:31:18;7.00;;;6.30;;
14139;SDS011;7150;53.514;9.988;2023-06-19T07:33:43;6.80;;;6.10;;
14139;SDS011;7150;53.514;9.988;2023-06-19T07:36:09;7.30;;;6.53;;
14139;SDS011;7150;53.514;9.988;2023-06-19T07:38:38;7.57;;;6.70;;
14139;SDS011;7150;53.514;9.988;2023-06-19T07:41:08;7.47;;;6.63;;
14139;SDS011;7150;53.514;9.988;2023-06-19T07:43:35;8.17;;;6.30;;
14139;SDS011;7150;53.514;9.988;2023-06-19T07:46:00;7.10;;;6.40;;
14139;SDS011;7150;53.514;9.988;2023-06-19T07:48:26;7.10;;;6.40;;
14139;SDS011;7150;53.514;9.988;2023-06-19T07:50:53;7.63;;;6.03;;
14139;SDS011;7150;53.514;9.988;2023-06-19T07:53:18;7.77;;;6.40;;
14139;SDS011;7150;53.514;9.988;2023-06-19T07:55:44;8.03;;;6.33;;
14139;SDS011;7150;53.514;9.988;2023-06-19T07:58:10;7.43;;;6.50;;
14139;SDS011;7150;53.514;9.988;2023-06-19T08:00:35;7.20;;;6.50;;
14139;SDS011;7150;53.514;9.988;2023-06-19T08:03:01;6.53;;;5.80;;
14139;SDS011;7150;53.514;9.988;2023-06-19T08:05:26;7.27;;;6.57;;
14139;SDS011;7150;53.514;9.988;2023-06-19T08:07:52;6.30;;;5.70;;
14139;SDS011;7150;53.514;9.988;2023-06-19T08:10:17;7.00;;;6.30;;
14139;SDS011;7150;53.514;9.988;2023-06-19T08:12:43;7.40;;;6.13;;
14139;SDS011;7150;53.514;9.988;2023-06-19T08:15:09;6.10;;;5.50;;
14139;SDS011;7150;53.514;9.988;2023-06-19T08:17:36;6.83;;;6.00;;
14139;SDS011;7150;53.514;9.988;2023-06-19T08:20:02;7.13;;;5.97;;
14139;SDS011;7150;53.514;9.988;2023-06-19T08:22:30;6.60;;;5.90;;
14139;SDS011;7150;53.514;9.988;2023-06-19T08:24:55;7.60;;;5.83;;
14139;SDS011;7150;53.514;9.988;2023-06-19T08:27:21;6.70;;;6.00;;
14139;SDS011;7150;53.514;9.988;2023-06-19T08:29:46;6.97;;;5.30;;
14139;SDS011;7150;53.514;9.988;2023-06-19T08:32:12;7.90;;;6.07;;
14139;SDS011;7150;53.514;9.988;2023-06-19T08:34:37;7.37;;;6.03;;
14139;SDS011;7150;53.514;9.988;2023-06-19T08:37:04;6.67;;;6.00;;
14139;SDS011;7150;53.514;9.988;2023-06-19T08:39:30;7.47;;;6.23;;
14139;SDS011;7150;53.514;9.988;2023-06-19T08:41:56;6.93;;;6.27;;
14139;SDS011;7150;53.514;9.988;2023-06-19T08:44:21;6.97;;;5.90;;
14139;SDS011;7150;53.514;9.988;2023-06-19T08:46:47;7.37;;;6.33;;
14139;SDS011;7150;53.514;9.988;2023-06-19T08:49:12;6.70;;;6.10;;
14139;SDS011;7150;53.514;9.988;2023-06-19T08:51:39;5.90;;;5.40;;
14139;SDS011;7150;53.514;9.988;2023-06-19T08:54:06;7.20;;;6.50;;
14139;SDS011;7150;53.514;9.988;2023-06-19T08:56:33;7.07;;;6.23;;
14139;SDS011;7150;53.514;9.988;2023-06-19T08:59:12;7.77;;;6.93;;
14139;SDS011;7150;53.514;9.988;2023-06-19T09:01:39;7.07;;;6.13;;
14139;SDS011;7150;53.514;9.988;2023-06-19T09:04:12;7.90;;;7.07;;
14139;SDS011;7150;53.514;9.988;2023-06-19T09:06:50;7.97;;;7.17;;
14139;SDS011;7150;53.514;9.988;2023-06-19T09:09:17;8.43;;;7.03;;
14139;SDS011;7150;53.514;9.988;2023-06-19T09:11:56;7.33;;;6.43;;
14139;SDS011;7150;53.514;9.988;2023-06-19T09:14:33;8.13;;;6.93;;
14139;SDS011;7150;53.514;9.988;2023-06-19T09:17:03;8.60;;;7.70;;
14139;SDS011;7150;53.514;9.988;2023-06-19T09:19:29;7.70;;;7.00;;
14139;SDS011;7150;53.514;9.988;2023-06-19T09:22:01;7.33;;;6.60;;
14139;SDS011;7150;53.514;9.988;2023-06-19T09:24:35;7.60;;;6.80;;
14139;SDS011;7150;53.514;9.988;2023-06-19T09:27:06;7.53;;;6.80;;
14139;SDS011;7150;53.514;9.988;2023-06-19T09:29:37;9.27;;;6.60;;
14139;SDS011;7150;53.514;9.988;2023-06-19T09:32:20;7.47;;;6.77;;
14139;SDS011;7150;53.514;9.988;2023-06-19T09:34:48;7.13;;;6.43;;
14139;SDS011;7150;53.514;9.988;2023-06-19T09:37:15;8.27;;;7.10;;
14139;SDS011;7150;53.514;9.988;2023-06-19T09:39:55;8.07;;;7.27;;
14139;SDS011;7150;53.514;9.988;2023-06-19T09:42:34;7.80;;;7.10;;
14139;SDS011;7150;53.514;9.988;2023-06-19T09:45:04;8.27;;;7.47;;
14139;SDS011;7150;53.514;9.988;2023-06-19T09:47:32;7.63;;;6.83;;
14139;SDS011;7150;53.514;9.988;2023-06-19T09:50:11;7.80;;;7.00;;
14139;SDS011;7150;53.514;9.988;2023-06-19T09:52:39;7.87;;;7.07;;
14139;SDS011;7150;53.514;9.988;2023-06-19T09:55:07;8.33;;;7.53;;
14139;SDS011;7150;53.514;9.988;2023-06-19T09:57:34;8.53;;;7.63;;
14139;SDS011;7150;53.514;9.988;2023-06-19T10:00:00;10.93;;;8.23;;
14139;SDS011;7150;53.514;9.988;2023-06-19T10:02:38;9.83;;;7.83;;
14139;SDS011;7150;53.514;9.988;2023-06-19T10:05:09;8.80;;;7.90;;
14139;SDS011;7150;53.514;9.988;2023-06-19T10:07:37;7.40;;;6.70;;
14139;SDS011;7150;53.514;9.988;2023-06-19T10:10:06;7.70;;;6.87;;
14139;SDS011;7150;53.514;9.988;2023-06-19T10:12:36;7.60;;;6.80;;
14139;SDS011;7150;53.514;9.988;2023-06-19T10:15:15;9.57;;;7.33;;
14139;SDS011;7150;53.514;9.988;2023-06-19T10:17:43;9.07;;;7.50;;
14139;SDS011;7150;53.514;9.988;2023-06-19T10:20:23;7.70;;;6.80;;
14139;SDS011;7150;53.514;9.988;2023-06-19T10:23:10;8.47;;;7.67;;
14139;SDS011;7150;53.514;9.988;2023-06-19T10:25:40;8.37;;;7.10;;
14139;SDS011;7150;53.514;9.988;2023-06-19T10:28:17;9.40;;;7.73;;
14139;SDS011;7150;53.514;9.988;2023-06-19T10:31:04;7.37;;;6.67;;
14139;SDS011;7150;53.514;9.988;2023-06-19T10:33:32;8.17;;;6.87;;
14139;SDS011;7150;53.514;9.988;2023-06-19T10:35:59;7.50;;;6.80;;
14139;SDS011;7150;53.514;9.988;2023-06-19T10:38:25;7.90;;;7.10;;
14139;SDS011;7150;53.514;9.988;2023-06-19T10:40:51;8.70;;;7.67;;
14139;SDS011;7150;53.514;9.988;2023-06-19T10:43:21;8.00;;;7.23;;
14139;SDS011;7150;53.514;9.988;2023-06-19T10:45:49;7.90;;;7.10;;
14139;SDS011;7150;53.514;9.988;2023-06-19T10:48:19;9.17;;;7.93;;
14139;SDS011;7150;53.514;9.988;2023-06-19T10:50:46;8.03;;;6.73;;
14139;SDS011;7150;53.514;9.988;2023-06-19T10:53:22;9.20;;;7.37;;
14139;SDS011;7150;53.514;9.988;2023-06-19T10:55:48;7.83;;;6.90;;
14139;SDS011;7150;53.514;9.988;2023-06-19T10:58:20;9.47;;;7.00;;
14139;SDS011;7150;53.514;9.988;2023-06-19T11:00:46;7.77;;;6.97;;
14139;SDS011;7150;53.514;9.988;2023-06-19T11:03:11;8.57;;;7.10;;
14139;SDS011;7150;53.514;9.988;2023-06-19T11:05:37;8.57;;;7.13;;
14139;SDS011;7150;53.514;9.988;2023-06-19T11:08:09;9.13;;;8.23;;
14139;SDS011;7150;53.514;9.988;2023-06-19T11:10:34;8.37;;;7.23;;
14139;SDS011;7150;53.514;9.988;2023-06-19T11:13:00;8.27;;;7.43;;
14139;SDS011;7150;53.514;9.988;2023-06-19T11:15:35;7.97;;;6.87;;
14139;SDS011;7150;53.514;9.988;2023-06-19T11:18:00;8.50;;;6.90;;
14139;SDS011;7150;53.514;9.988;2023-06-19T11:20:27;8.60;;;6.67;;
14139;SDS011;7150;53.514;9.988;2023-06-19T11:22:57;9.07;;;6.97;;
14139;SDS011;7150;53.514;9.988;2023-06-19T11:25:34;7.13;;;6.20;;
14139;SDS011;7150;53.514;9.988;2023-06-19T11:28:13;7.47;;;6.67;;
14139;SDS011;7150;53.514;9.988;2023-06-19T11:30:40;7.50;;;6.03;;
14139;SDS011;7150;53.514;9.988;2023-06-19T11:33:17;6.73;;;6.03;;
14139;SDS011;7150;53.514;9.988;2023-06-19T11:35:54;6.97;;;6.27;;
14139;SDS011;7150;53.514;9.988;2023-06-19T11:38:20;6.87;;;6.27;;
14139;SDS011;7150;53.514;9.988;2023-06-19T11:40:47;7.37;;;6.20;;
14139;SDS011;7150;53.514;9.988;2023-06-19T11:43:29;6.43;;;5.83;;
14139;SDS011;7150;53.514;9.988;2023-06-19T11:46:02;6.40;;;5.60;;
14139;SDS011;7150;53.514;9.988;2023-06-19T11:48:29;8.40;;;5.70;;
14139;SDS011;7150;53.514;9.988;2023-06-19T11:50:55;6.70;;;6.10;;
14139;SDS011;7150;53.514;9.988;2023-06-19T11:53:21;6.33;;;5.70;;
14139;SDS011;7150;53.514;9.988;2023-06-19T11:55:47;6.97;;;5.80;;
14139;SDS011;7150;53.514;9.988;2023-06-19T11:58:14;8.63;;;6.30;;
14139;SDS011;7150;53.514;9.988;2023-06-19T12:00:43;7.30;;;5.30;;
14139;SDS011;7150;53.514;9.988;2023-06-19T12:03:08;5.57;;;4.93;;
14139;SDS011;7150;53.514;9.988;2023-06-19T12:05:34;5.23;;;4.73;;
14139;SDS011;7150;53.514;9.988;2023-06-19T12:08:00;5.23;;;4.73;;
14139;SDS011;7150;53.514;9.988;2023-06-19T12:10:29;5.67;;;5.03;;
14139;SDS011;7150;53.514;9.988;2023-06-19T12:12:55;5.87;;;5.00;;
14139;SDS011;7150;53.514;9.988;2023-06-19T12:15:21;5.37;;;4.57;;
14139;SDS011;7150;53.514;9.988;2023-06-19T12:17:46;6.63;;;4.60;;
14139;SDS011;7150;53.514;9.988;2023-06-19T12:20:12;5.00;;;4.50;;
14139;SDS011;7150;53.514;9.988;2023-06-19T12:22:39;4.90;;;4.40;;
14139;SDS011;7150;53.514;9.988;2023-06-19T12:25:05;5.43;;;4.93;;
14139;SDS011;7150;53.514;9.988;2023-06-19T12:27:31;6.03;;;4.70;;
14139;SDS011;7150;53.514;9.988;2023-06-19T12:29:56;6.53;;;5.07;;
14139;SDS011;7150;53.514;9.988;2023-06-19T12:32:22;6.60;;;4.90;;
14139;SDS011;7150;53.514;9.988;2023-06-19T12:34:47;10.10;;;6.03;;
14139;SDS011;7150;53.514;9.988;2023-06-19T12:37:16;7.00;;;5.27;;
14139;SDS011;7150;53.514;9.988;2023-06-19T12:39:42;5.80;;;5.17;;
14139;SDS011;7150;53.514;9.988;2023-06-19T12:42:08;8.67;;;5.17;;
14139;SDS011;7150;53.514;9.988;2023-06-19T12:44:36;6.20;;;4.90;;
14139;SDS011;7150;53.514;9.988;2023-06-19T12:47:02;5.40;;;4.90;;
14139;SDS011;7150;53.514;9.988;2023-06-19T12:49:29;6.70;;;4.77;;
14139;SDS011;7150;53.514;9.988;2023-06-19T12:51:55;6.20;;;5.30;;
14139;SDS011;7150;53.514;9.988;2023-06-19T12:54:20;5.30;;;4.63;;
14139;SDS011;7150;53.514;9.988;2023-06-19T12:56:46;5.70;;;4.77;;
14139;SDS011;7150;53.514;9.988;2023-06-19T12:59:11;5.60;;;4.60;;
14139;SDS011;7150;53.514;9.988;2023-06-19T13:01:37;5.70;;;4.37;;
14139;SDS011;7150;53.514;9.988;2023-06-19T13:04:02;6.20;;;4.00;;
14139;SDS011;7150;53.514;9.988;2023-06-19T13:06:28;4.93;;;4.10;;
14139;SDS011;7150;53.514;9.988;2023-06-19T13:08:53;4.77;;;3.90;;
14139;SDS011;7150;53.514;9.988;2023-06-19T13:11:19;5.93;;;3.97;;
14139;SDS011;7150;53.514;9.988;2023-06-19T13:13:44;4.40;;;3.87;;
14139;SDS011;7150;53.514;9.988;2023-06-19T13:16:10;6.40;;;4.53;;
14139;SDS011;7150;53.514;9.988;2023-06-19T13:18:35;4.80;;;3.80;;
14139;SDS011;7150;53.514;9.988;2023-06-19T13:21:01;4.50;;;3.30;;
14139;SDS011;7150;53.514;9.988;2023-06-19T13:23:26;3.53;;;3.23;;
14139;SDS011;7150;53.514;9.988;2023-06-19T13:25:52;5.37;;;3.83;;
14139;SDS011;7150;53.514;9.988;2023-06-19T13:28:17;4.77;;;4.10;;
14139;SDS011;7150;53.514;9.988;2023-06-19T13:30:43;6.73;;;4.50;;
14139;SDS011;7150;53.514;9.988;2023-06-19T13:33:08;7.83;;;5.20;;
14139;SDS011;7150;53.514;9.988;2023-06-19T13:35:34;7.23;;;5.00;;
14139;SDS011;7150;53.514;9.988;2023-06-19T13:38:00;6.00;;;4.40;;
14139;SDS011;7150;53.514;9.988;2023-06-19T13:40:25;6.07;;;4.73;;
14139;SDS011;7150;53.514;9.988;2023-06-19T13:42:51;4.93;;;4.37;;
14139;SDS011;7150;53.514;9.988;2023-06-19T13:45:16;5.57;;;4.17;;
14139;SDS011;7150;53.514;9.988;2023-06-19T13:47:42;5.90;;;4.80;;
14139;SDS011;7150;53.514;9.988;2023-06-19T13:50:08;6.63;;;4.73;;
14139;SDS011;7150;53.514;9.988;2023-06-19T13:52:34;5.13;;;4.63;;
14139;SDS011;7150;53.514;9.988;2023-06-19T13:54:59;6.03;;;5.23;;
14139;SDS011;7150;53.514;9.988;2023-06-19T13:57:27;6.40;;;4.90;;
14139;SDS011;7150;53.514;9.988;2023-06-19T13:59:52;7.10;;;5.87;;
14139;SDS011;7150;53.514;9.988;2023-06-19T14:02:18;6.07;;;5.23;;
14139;SDS011;7150;53.514;9.988;2023-06-19T14:04:43;5.63;;;5.13;;
14139;SDS011;7150;53.514;9.988;2023-06-19T14:07:09;5.23;;;4.73;;
14139;SDS011;7150;53.514;9.988;2023-06-19T14:09:34;7.10;;;5.13;;
14139;SDS011;7150;53.514;9.988;2023-06-19T14:12:00;5.83;;;5.10;;
14139;SDS011;7150;53.514;9.988;2023-06-19T14:14:25;5.03;;;4.63;;
14139;SDS011;7150;53.514;9.988;2023-06-19T14:16:51;5.57;;;4.90;;
14139;SDS011;7150;53.514;9.988;2023-06-19T14:19:16;6.73;;;4.70;;
14139;SDS011;7150;53.514;9.988;2023-06-19T14:21:42;4.73;;;4.23;;
14139;SDS011;7150;53.514;9.988;2023-06-19T14:24:07;4.97;;;4.47;;
14139;SDS011;7150;53.514;9.988;2023-06-19T14:26:33;4.97;;;4.47;;
14139;SDS011;7150;53.514;9.988;2023-06-19T14:28:59;5.03;;;4.33;;
14139;SDS011;7150;53.514;9.988;2023-06-19T14:31:24;9.20;;;5.07;;
14139;SDS011;7150;53.514;9.988;2023-06-19T14:33:50;5.33;;;4.83;;
14139;SDS011;7150;53.514;9.988;2023-06-19T14:36:15;5.53;;;4.87;;
14139;SDS011;7150;53.514;9.988;2023-06-19T14:38:41;5.73;;;4.90;;
14139;SDS011;7150;53.514;9.988;2023-06-19T14:41:06;5.93;;;5.00;;
14139;SDS011;7150;53.514;9.988;2023-06-19T14:43:32;6.17;;;4.40;;
14139;SDS011;7150;53.514;9.988;2023-06-19T14:45:59;8.90;;;5.73;;
14139;SDS011;7150;53.514;9.988;2023-06-19T14:48:25;7.73;;;6.00;;
14139;SDS011;7150;53.514;9.988;2023-06-19T14:50:50;7.43;;;6.10;;
14139;SDS011;7150;53.514;9.988;2023-06-19T14:53:16;6.00;;;5.40;;
14139;SDS011;7150;53.514;9.988;2023-06-19T14:55:41;5.90;;;5.30;;
14139;SDS011;7150;53.514;9.988;2023-06-19T14:58:11;5.10;;;4.70;;